createdAt,value
2017-08-03T00:09:13.420Z,-61
2017-08-03T00:19:13.388Z,-60
2017-08-03T00:29:13.445Z,-60
2017-08-03T00:39:13.516Z,-61
2017-08-03T00:49:13.304Z,-59
2017-08-03T00:59:13.594Z,-61
2017-08-03T01:09:13.613Z,-59
2017-08-03T01:19:13.718Z,-61
2017-08-03T01:29:13.334Z,-60
2017-08-03T01:39:13.604Z,-61
2017-08-03T01:49:13.684Z,-61
2017-08-03T01:59:13.746Z,-61
2017-08-03T02:09:13.716Z,-61
2017-08-03T02:19:13.403Z,-56
2017-08-03T02:29:13.381Z,-61
2017-08-03T02:39:13.505Z,-61
2017-08-03T02:49:13.280Z,-60
2017-08-03T02:59:13.241Z,-60
2017-08-03T03:09:13.324Z,-60
2017-08-03T03:19:13.286Z,-61
2017-08-03T03:29:13.382Z,-61
2017-08-03T03:39:13.390Z,-62
2017-08-03T03:49:13.413Z,-62
2017-08-03T03:59:13.358Z,-62
2017-08-03T04:09:13.337Z,-60
2017-08-03T04:19:13.428Z,-62
2017-08-03T04:29:13.369Z,-62
2017-08-03T04:39:13.324Z,-62
2017-08-03T04:49:13.451Z,-61
2017-08-03T04:59:13.359Z,-61
2017-08-03T05:09:13.321Z,-62
2017-08-03T05:19:13.328Z,-61
2017-08-03T05:29:13.340Z,-61
2017-08-03T05:39:13.390Z,-61
2017-08-03T05:49:13.326Z,-62
2017-08-03T05:59:13.436Z,-62
2017-08-03T06:09:13.410Z,-64
2017-08-03T06:19:13.330Z,-64
2017-08-03T06:29:13.457Z,-64
2017-08-03T06:39:13.473Z,-61
2017-08-03T06:49:13.253Z,-63
2017-08-03T06:59:13.292Z,-63
2017-08-03T07:09:13.298Z,-64
2017-08-03T07:19:13.291Z,-64
2017-08-03T07:29:13.304Z,-64
2017-08-03T07:39:13.362Z,-65
2017-08-03T07:49:13.390Z,-65
2017-08-03T07:59:13.281Z,-65
2017-08-03T08:09:13.381Z,-66
2017-08-03T08:19:13.330Z,-64
2017-08-03T08:29:13.332Z,-63
2017-08-03T08:39:13.264Z,-63
2017-08-03T08:49:13.380Z,-65
2017-08-03T08:59:13.294Z,-63
2017-08-03T09:09:13.361Z,-63
2017-08-03T09:19:13.361Z,-64
2017-08-03T09:29:13.313Z,-64
2017-08-03T09:39:13.333Z,-64
2017-08-03T09:49:13.340Z,-65
2017-08-03T09:59:13.354Z,-63
2017-08-03T10:09:13.423Z,-64
2017-08-03T10:19:13.413Z,-64
2017-08-03T10:29:13.436Z,-64
2017-08-03T10:39:13.346Z,-65
2017-08-03T10:49:13.458Z,-66
2017-08-03T10:59:13.343Z,-65
2017-08-03T11:09:13.313Z,-64
2017-08-03T11:19:13.406Z,-64
2017-08-03T11:29:13.348Z,-64
2017-08-03T11:39:13.374Z,-63
2017-08-03T11:49:13.368Z,-63
2017-08-03T11:59:13.554Z,-62
2017-08-03T12:09:13.505Z,-62
2017-08-03T12:19:13.441Z,-62
2017-08-03T12:29:13.365Z,-62
2017-08-03T12:39:13.497Z,-62
2017-08-03T12:49:13.415Z,-63
2017-08-03T12:59:13.706Z,-63
2017-08-03T13:09:13.437Z,-62
2017-08-03T13:19:13.428Z,-61
2017-08-03T13:29:14.744Z,-63
2017-08-03T13:39:13.416Z,-60
2017-08-03T13:49:13.508Z,-62
2017-08-03T13:59:13.428Z,-63
2017-08-03T14:09:13.498Z,-61
2017-08-03T14:19:13.451Z,-63
2017-08-03T14:29:13.397Z,-62
2017-08-03T14:39:13.457Z,-62
2017-08-03T14:49:13.436Z,-63
2017-08-03T14:59:13.563Z,-63
2017-08-03T15:09:13.441Z,-62
2017-08-03T15:19:13.405Z,-64
2017-08-03T15:29:13.573Z,-61
2017-08-03T15:39:13.432Z,-61
2017-08-03T15:49:13.490Z,-63
2017-08-03T15:59:13.538Z,-64
2017-08-03T16:09:13.436Z,-62
2017-08-03T16:19:13.452Z,-63
2017-08-03T16:29:13.762Z,-63
2017-08-03T16:39:13.486Z,-63
2017-08-03T16:49:13.453Z,-65
2017-08-03T16:59:13.583Z,-66
2017-08-03T17:09:13.562Z,-67
2017-08-03T17:19:14.450Z,-63
2017-08-03T17:29:13.438Z,-61
2017-08-03T17:39:13.511Z,-62
2017-08-03T17:49:13.546Z,-56
2017-08-03T17:59:13.571Z,-60
2017-08-03T18:09:13.439Z,-60
2017-08-03T18:19:13.418Z,-60
2017-08-03T18:29:13.460Z,-60
2017-08-03T18:39:13.436Z,-61
2017-08-03T18:49:13.412Z,-60
2017-08-03T18:59:13.391Z,-59
2017-08-03T19:09:13.545Z,-59
2017-08-03T19:19:13.486Z,-60
2017-08-03T19:29:13.588Z,-60
2017-08-03T19:39:13.473Z,-62
2017-08-03T19:49:13.950Z,-60
2017-08-03T19:59:13.580Z,-62
2017-08-03T20:09:13.505Z,-59
2017-08-03T20:19:13.530Z,-60
2017-08-03T20:29:13.517Z,-60
2017-08-03T20:39:13.630Z,-60
2017-08-03T20:49:13.548Z,-60
2017-08-03T20:59:13.463Z,-59
2017-08-03T21:09:13.569Z,-60
2017-08-03T21:19:19.518Z,-60
2017-08-03T21:29:13.418Z,-59
2017-08-03T21:39:25.987Z,-59
2017-08-03T21:49:13.558Z,-59
2017-08-03T21:59:13.512Z,-60
2017-08-03T22:09:13.576Z,-59
2017-08-03T22:19:13.514Z,-60
2017-08-03T22:29:13.440Z,-60
2017-08-03T22:39:13.555Z,-59
2017-08-03T22:49:13.519Z,-59
2017-08-03T22:59:13.453Z,-59
2017-08-03T23:09:13.502Z,-59
2017-08-03T23:19:13.697Z,-60
2017-08-03T23:29:13.492Z,-59
2017-08-03T23:39:13.501Z,-59
2017-08-03T23:49:13.549Z,-60
2017-08-03T23:59:13.474Z,-60
